Главная страница
METAR-TAF:

METAR-TAF

Аэропорты :

Дамаск, Сирия

широта: 33-25N, долгота: 036-31E, высота над уровнем моря: 608 м

Текущие метеонаблюдения

Эта сводка был подготовлена 57 минут назад, в 02:00 UTC
Ветер 8 Узел от юго-западный
Температура 7°C
Влажность 76%
Давление 1018 hPa
Видимость 10 км и более
Нет облачности ниже 1500 м, и нет кучево-дождевой облачности

METAR: OSDI 040200Z 22008KT CAVOK 07/03 Q1018

Время: 05:57 (02:57 UTC)

Прогноз

Эта сводка был подготовлена 2 часа и 57 минут назад, в 00:00 UTC
Прогноз действительный с 04-го 00 UTC до 05-го 06 UTC
Ветер 15 Узел от юго-западный
Видимость: 8000 м
временами
С 04-го 12 UTC до 04-го 18 UTC
Ветер 15 Узел от западный с порывами до 25 Узел
Видимость 10 км и более
небольшая облачность на высоте 3000 фута

TAF: OSDI 040000Z 0400/0506 22015KT 8000 TEMPO 0412/0418 28015G25KT 9999 FEW030

Метеонаблюдения и прогнозы для более 4000 аэропортов (сводки METAR и TAF).

Имеющиеся станции представлены на карте желтыми и красными точками.

Чтобы увидеть название станции, наведите на нее мышь.

Затем щелкните, чтобы увидеть метеонаблюдения и метеопрогнозы.

Управление картой: чтобы увеличить масштаб, щелкните зеленые кнопки с черным крестиком; чтобы уменьшить масштаб, щелкните зеленую кнопку с тире; для просмотра соседних карт щелкайте зеленые стрелки.


METAR-TAF: